sensor_id;sensor_type;location;lat;lon;timestamp;temperature;humidity
20977;DHT22;10647;51.016;3.720;2022-08-20T00:01:07;20.10;99.90
20977;DHT22;10647;51.016;3.720;2022-08-20T00:03:39;20.10;99.90
20977;DHT22;10647;51.016;3.720;2022-08-20T00:06:10;20.10;99.90
20977;DHT22;10647;51.016;3.720;2022-08-20T00:08:38;20.10;99.90
20977;DHT22;10647;51.016;3.720;2022-08-20T00:11:09;20.10;99.90
20977;DHT22;10647;51.016;3.720;2022-08-20T00:13:40;20.00;99.90
20977;DHT22;10647;51.016;3.720;2022-08-20T00:16:08;19.90;99.90
20977;DHT22;10647;51.016;3.720;2022-08-20T00:18:36;19.80;99.90
20977;DHT22;10647;51.016;3.720;2022-08-20T00:21:07;19.70;99.90
20977;DHT22;10647;51.016;3.720;2022-08-20T00:23:40;19.70;99.90
20977;DHT22;10647;51.016;3.720;2022-08-20T00:26:09;19.60;99.90
20977;DHT22;10647;51.016;3.720;2022-08-20T00:28:38;19.50;99.90
20977;DHT22;10647;51.016;3.720;2022-08-20T00:31:08;19.50;99.90
20977;DHT22;10647;51.016;3.720;2022-08-20T00:33:37;19.40;99.90
20977;DHT22;10647;51.016;3.720;2022-08-20T00:36:06;19.40;99.90
20977;DHT22;10647;51.016;3.720;2022-08-20T00:38:37;19.30;99.90
20977;DHT22;10647;51.016;3.720;2022-08-20T00:41:07;19.30;99.90
20977;DHT22;10647;51.016;3.720;2022-08-20T00:43:38;19.30;99.90
20977;DHT22;10647;51.016;3.720;2022-08-20T00:46:09;19.30;99.90
20977;DHT22;10647;51.016;3.720;2022-08-20T00:48:39;19.20;99.90
20977;DHT22;10647;51.016;3.720;2022-08-20T00:51:11;19.10;99.90
20977;DHT22;10647;51.016;3.720;2022-08-20T00:53:39;19.20;99.90
20977;DHT22;10647;51.016;3.720;2022-08-20T00:56:07;19.10;99.90
20977;DHT22;10647;51.016;3.720;2022-08-20T00:58:37;19.00;99.90
20977;DHT22;10647;51.016;3.720;2022-08-20T01:01:07;19.00;99.90
20977;DHT22;10647;51.016;3.720;2022-08-20T01:03:35;19.00;99.90
20977;DHT22;10647;51.016;3.720;2022-08-20T01:06:03;19.00;99.90
20977;DHT22;10647;51.016;3.720;2022-08-20T01:08:30;19.00;99.90
20977;DHT22;10647;51.016;3.720;2022-08-20T01:10:58;19.00;99.90
20977;DHT22;10647;51.016;3.720;2022-08-20T01:13:35;19.00;99.90
20977;DHT22;10647;51.016;3.720;2022-08-20T01:16:24;19.00;99.90
20977;DHT22;10647;51.016;3.720;2022-08-20T01:18:52;19.10;99.90
20977;DHT22;10647;51.016;3.720;2022-08-20T01:21:22;19.10;99.90
20977;DHT22;10647;51.016;3.720;2022-08-20T01:24:14;19.10;99.90
20977;DHT22;10647;51.016;3.720;2022-08-20T01:26:40;19.10;99.90
20977;DHT22;10647;51.016;3.720;2022-08-20T01:29:14;19.00;99.90
20977;DHT22;10647;51.016;3.720;2022-08-20T01:31:43;19.00;99.90
20977;DHT22;10647;51.016;3.720;2022-08-20T01:34:13;18.90;99.90
20977;DHT22;10647;51.016;3.720;2022-08-20T01:36:47;18.80;99.90
20977;DHT22;10647;51.016;3.720;2022-08-20T01:39:18;18.80;99.90
20977;DHT22;10647;51.016;3.720;2022-08-20T01:42:06;18.80;99.90
20977;DHT22;10647;51.016;3.720;2022-08-20T01:44:36;18.70;99.90
20977;DHT22;10647;51.016;3.720;2022-08-20T01:49:44;18.60;99.90
20977;DHT22;10647;51.016;3.720;2022-08-20T01:54:42;18.60;99.90
20977;DHT22;10647;51.016;3.720;2022-08-20T01:57:15;18.50;99.90
20977;DHT22;10647;51.016;3.720;2022-08-20T01:59:43;18.50;99.90
20977;DHT22;10647;51.016;3.720;2022-08-20T02:02:11;18.40;99.90
20977;DHT22;10647;51.016;3.720;2022-08-20T02:04:39;18.40;99.90
20977;DHT22;10647;51.016;3.720;2022-08-20T02:07:13;18.40;99.90
20977;DHT22;10647;51.016;3.720;2022-08-20T02:09:41;18.30;99.90
20977;DHT22;10647;51.016;3.720;2022-08-20T02:12:09;18.30;99.90
20977;DHT22;10647;51.016;3.720;2022-08-20T02:14:46;18.30;99.90
20977;DHT22;10647;51.016;3.720;2022-08-20T02:17:11;18.20;99.90
20977;DHT22;10647;51.016;3.720;2022-08-20T02:19:42;18.30;99.90
20977;DHT22;10647;51.016;3.720;2022-08-20T02:24:57;18.20;99.90
20977;DHT22;10647;51.016;3.720;2022-08-20T02:27:24;18.10;99.90
20977;DHT22;10647;51.016;3.720;2022-08-20T02:29:54;18.10;99.90
20977;DHT22;10647;51.016;3.720;2022-08-20T02:32:21;18.10;99.90
20977;DHT22;10647;51.016;3.720;2022-08-20T02:34:49;18.00;99.90
20977;DHT22;10647;51.016;3.720;2022-08-20T02:37:16;18.00;99.90
20977;DHT22;10647;51.016;3.720;2022-08-20T02:39:45;18.00;99.90
20977;DHT22;10647;51.016;3.720;2022-08-20T02:42:13;17.90;99.90
20977;DHT22;10647;51.016;3.720;2022-08-20T02:44:40;17.90;99.90
20977;DHT22;10647;51.016;3.720;2022-08-20T02:47:08;17.90;99.90
20977;DHT22;10647;51.016;3.720;2022-08-20T02:49:36;17.90;99.90
20977;DHT22;10647;51.016;3.720;2022-08-20T02:52:09;17.90;99.90
20977;DHT22;10647;51.016;3.720;2022-08-20T02:54:40;17.90;99.90
20977;DHT22;10647;51.016;3.720;2022-08-20T02:57:17;17.80;99.90
20977;DHT22;10647;51.016;3.720;2022-08-20T02:59:41;17.80;99.90
20977;DHT22;10647;51.016;3.720;2022-08-20T03:02:10;17.80;99.90
20977;DHT22;10647;51.016;3.720;2022-08-20T03:04:38;17.70;99.90
20977;DHT22;10647;51.016;3.720;2022-08-20T03:07:06;17.70;99.90
20977;DHT22;10647;51.016;3.720;2022-08-20T03:09:36;17.70;99.90
20977;DHT22;10647;51.016;3.720;2022-08-20T03:12:04;17.70;99.90
20977;DHT22;10647;51.016;3.720;2022-08-20T03:14:33;17.60;99.90
20977;DHT22;10647;51.016;3.720;2022-08-20T03:17:02;17.60;99.90
20977;DHT22;10647;51.016;3.720;2022-08-20T03:19:29;17.60;99.90
20977;DHT22;10647;51.016;3.720;2022-08-20T03:21:57;17.60;99.90
20977;DHT22;10647;51.016;3.720;2022-08-20T03:24:24;17.60;99.90
20977;DHT22;10647;51.016;3.720;2022-08-20T03:26:52;17.60;99.90
20977;DHT22;10647;51.016;3.720;2022-08-20T03:29:19;17.60;99.90
20977;DHT22;10647;51.016;3.720;2022-08-20T03:31:53;17.50;99.90
20977;DHT22;10647;51.016;3.720;2022-08-20T03:34:20;17.50;99.90
20977;DHT22;10647;51.016;3.720;2022-08-20T03:36:53;17.50;99.90
20977;DHT22;10647;51.016;3.720;2022-08-20T03:39:24;17.50;99.90
20977;DHT22;10647;51.016;3.720;2022-08-20T03:41:57;17.50;99.90
20977;DHT22;10647;51.016;3.720;2022-08-20T03:44:27;17.40;99.90
20977;DHT22;10647;51.016;3.720;2022-08-20T03:46:55;17.40;99.90
20977;DHT22;10647;51.016;3.720;2022-08-20T03:49:23;17.40;99.90
20977;DHT22;10647;51.016;3.720;2022-08-20T03:51:52;17.40;99.90
20977;DHT22;10647;51.016;3.720;2022-08-20T03:54:25;17.40;99.90
20977;DHT22;10647;51.016;3.720;2022-08-20T03:56:55;17.40;99.90
20977;DHT22;10647;51.016;3.720;2022-08-20T03:59:26;17.30;99.90
20977;DHT22;10647;51.016;3.720;2022-08-20T04:01:53;17.30;99.90
20977;DHT22;10647;51.016;3.720;2022-08-20T04:04:22;17.30;99.90
20977;DHT22;10647;51.016;3.720;2022-08-20T04:06:50;17.30;99.90
20977;DHT22;10647;51.016;3.720;2022-08-20T04:09:23;17.30;99.90
20977;DHT22;10647;51.016;3.720;2022-08-20T04:11:57;17.20;99.90
20977;DHT22;10647;51.016;3.720;2022-08-20T04:14:27;17.20;99.90
20977;DHT22;10647;51.016;3.720;2022-08-20T04:17:06;17.20;99.90
20977;DHT22;10647;51.016;3.720;2022-08-20T04:19:35;17.20;99.90
20977;DHT22;10647;51.016;3.720;2022-08-20T04:22:22;17.20;99.90
20977;DHT22;10647;51.016;3.720;2022-08-20T04:24:50;17.20;99.90
20977;DHT22;10647;51.016;3.720;2022-08-20T04:27:18;17.10;99.90
20977;DHT22;10647;51.016;3.720;2022-08-20T04:29:46;17.10;99.90
20977;DHT22;10647;51.016;3.720;2022-08-20T04:32:14;17.10;99.90
20977;DHT22;10647;51.016;3.720;2022-08-20T04:34:44;17.10;99.90
20977;DHT22;10647;51.016;3.720;2022-08-20T04:37:11;17.10;99.90
20977;DHT22;10647;51.016;3.720;2022-08-20T04:39:39;17.00;99.90
20977;DHT22;10647;51.016;3.720;2022-08-20T04:42:07;17.10;99.90
20977;DHT22;10647;51.016;3.720;2022-08-20T04:44:34;17.00;99.90
20977;DHT22;10647;51.016;3.720;2022-08-20T04:47:02;17.10;99.90
20977;DHT22;10647;51.016;3.720;2022-08-20T04:49:30;17.00;99.90
20977;DHT22;10647;51.016;3.720;2022-08-20T04:51:57;17.00;99.90
20977;DHT22;10647;51.016;3.720;2022-08-20T04:54:25;17.00;99.90
20977;DHT22;10647;51.016;3.720;2022-08-20T04:56:53;17.00;99.90
20977;DHT22;10647;51.016;3.720;2022-08-20T04:59:20;17.00;99.90
20977;DHT22;10647;51.016;3.720;2022-08-20T05:01:48;17.10;99.90
20977;DHT22;10647;51.016;3.720;2022-08-20T05:04:15;17.10;99.90
20977;DHT22;10647;51.016;3.720;2022-08-20T05:06:43;17.10;99.90
20977;DHT22;10647;51.016;3.720;2022-08-20T05:09:10;17.10;99.90
20977;DHT22;10647;51.016;3.720;2022-08-20T05:11:38;17.20;99.90
20977;DHT22;10647;51.016;3.720;2022-08-20T05:14:06;17.20;99.90
20977;DHT22;10647;51.016;3.720;2022-08-20T05:16:38;17.20;99.90
20977;DHT22;10647;51.016;3.720;2022-08-20T05:19:10;17.30;99.90
20977;DHT22;10647;51.016;3.720;2022-08-20T05:21:36;17.30;99.90
20977;DHT22;10647;51.016;3.720;2022-08-20T05:24:05;17.30;99.90
20977;DHT22;10647;51.016;3.720;2022-08-20T05:26:33;17.30;99.90
20977;DHT22;10647;51.016;3.720;2022-08-20T05:29:01;17.40;99.90
20977;DHT22;10647;51.016;3.720;2022-08-20T05:31:30;17.50;99.90
20977;DHT22;10647;51.016;3.720;2022-08-20T05:34:06;17.60;99.90
20977;DHT22;10647;51.016;3.720;2022-08-20T05:36:40;17.60;99.90
20977;DHT22;10647;51.016;3.720;2022-08-20T05:39:08;17.70;99.90
20977;DHT22;10647;51.016;3.720;2022-08-20T05:41:49;17.70;99.90
20977;DHT22;10647;51.016;3.720;2022-08-20T05:44:17;17.80;99.90
20977;DHT22;10647;51.016;3.720;2022-08-20T05:46:47;17.80;99.90
20977;DHT22;10647;51.016;3.720;2022-08-20T05:49:18;17.90;99.90
20977;DHT22;10647;51.016;3.720;2022-08-20T05:51:46;17.90;99.90
20977;DHT22;10647;51.016;3.720;2022-08-20T05:54:14;18.00;99.90
20977;DHT22;10647;51.016;3.720;2022-08-20T05:56:42;18.10;99.90
20977;DHT22;10647;51.016;3.720;2022-08-20T05:59:10;18.10;99.90
20977;DHT22;10647;51.016;3.720;2022-08-20T06:01:40;18.20;99.90
20977;DHT22;10647;51.016;3.720;2022-08-20T06:04:09;18.30;99.90
20977;DHT22;10647;51.016;3.720;2022-08-20T06:07:05;18.30;99.90
20977;DHT22;10647;51.016;3.720;2022-08-20T06:09:33;18.40;99.90
20977;DHT22;10647;51.016;3.720;2022-08-20T06:12:03;18.40;99.90
20977;DHT22;10647;51.016;3.720;2022-08-20T06:14:37;18.40;99.90
20977;DHT22;10647;51.016;3.720;2022-08-20T06:17:15;18.50;99.90
20977;DHT22;10647;51.016;3.720;2022-08-20T06:19:46;18.60;99.90
20977;DHT22;10647;51.016;3.720;2022-08-20T06:22:40;18.70;99.90
20977;DHT22;10647;51.016;3.720;2022-08-20T06:25:08;18.70;99.90
20977;DHT22;10647;51.016;3.720;2022-08-20T06:27:40;18.80;99.90
20977;DHT22;10647;51.016;3.720;2022-08-20T06:30:13;18.90;99.90
20977;DHT22;10647;51.016;3.720;2022-08-20T06:32:41;19.00;99.90
20977;DHT22;10647;51.016;3.720;2022-08-20T06:35:10;19.10;99.90
20977;DHT22;10647;51.016;3.720;2022-08-20T06:37:38;19.10;99.90
20977;DHT22;10647;51.016;3.720;2022-08-20T06:40:12;19.20;99.90
20977;DHT22;10647;51.016;3.720;2022-08-20T06:42:40;19.30;99.90
20977;DHT22;10647;51.016;3.720;2022-08-20T06:45:11;19.40;99.90
20977;DHT22;10647;51.016;3.720;2022-08-20T06:47:43;19.40;99.90
20977;DHT22;10647;51.016;3.720;2022-08-20T06:50:14;19.60;99.90
20977;DHT22;10647;51.016;3.720;2022-08-20T06:52:43;19.60;99.90
20977;DHT22;10647;51.016;3.720;2022-08-20T06:55:15;19.70;99.90
20977;DHT22;10647;51.016;3.720;2022-08-20T06:57:43;19.80;99.90
20977;DHT22;10647;51.016;3.720;2022-08-20T07:00:18;19.90;99.90
20977;DHT22;10647;51.016;3.720;2022-08-20T07:02:41;20.00;99.90
20977;DHT22;10647;51.016;3.720;2022-08-20T07:05:09;20.10;99.90
20977;DHT22;10647;51.016;3.720;2022-08-20T07:07:37;20.20;99.90
20977;DHT22;10647;51.016;3.720;2022-08-20T07:10:06;20.20;99.90
20977;DHT22;10647;51.016;3.720;2022-08-20T07:12:34;20.30;99.90
20977;DHT22;10647;51.016;3.720;2022-08-20T07:15:04;20.40;99.90
20977;DHT22;10647;51.016;3.720;2022-08-20T07:17:33;20.50;99.90
20977;DHT22;10647;51.016;3.720;2022-08-20T07:20:13;20.60;99.90
20977;DHT22;10647;51.016;3.720;2022-08-20T07:22:41;20.70;99.90
20977;DHT22;10647;51.016;3.720;2022-08-20T07:28:03;20.90;99.90
20977;DHT22;10647;51.016;3.720;2022-08-20T07:30:31;21.00;99.90
20977;DHT22;10647;51.016;3.720;2022-08-20T07:33:29;21.00;99.90
20977;DHT22;10647;51.016;3.720;2022-08-20T07:35:59;21.20;99.90
20977;DHT22;10647;51.016;3.720;2022-08-20T07:38:29;21.30;99.90
20977;DHT22;10647;51.016;3.720;2022-08-20T07:41:10;21.40;99.90
20977;DHT22;10647;51.016;3.720;2022-08-20T07:43:35;21.50;99.90
20977;DHT22;10647;51.016;3.720;2022-08-20T07:46:12;21.50;99.90
20977;DHT22;10647;51.016;3.720;2022-08-20T07:48:43;21.60;99.90
20977;DHT22;10647;51.016;3.720;2022-08-20T07:51:16;21.70;99.90
20977;DHT22;10647;51.016;3.720;2022-08-20T07:53:49;21.80;99.90
20977;DHT22;10647;51.016;3.720;2022-08-20T07:56:19;22.00;99.90
20977;DHT22;10647;51.016;3.720;2022-08-20T07:58:51;22.10;99.90
20977;DHT22;10647;51.016;3.720;2022-08-20T08:01:21;22.10;99.90
20977;DHT22;10647;51.016;3.720;2022-08-20T08:03:51;22.20;99.90
20977;DHT22;10647;51.016;3.720;2022-08-20T08:06:22;22.30;99.90
20977;DHT22;10647;51.016;3.720;2022-08-20T08:08:50;22.40;99.90
20977;DHT22;10647;51.016;3.720;2022-08-20T08:11:18;22.50;99.90
20977;DHT22;10647;51.016;3.720;2022-08-20T08:13:46;22.60;99.90
20977;DHT22;10647;51.016;3.720;2022-08-20T08:16:14;22.60;99.90
20977;DHT22;10647;51.016;3.720;2022-08-20T08:18:49;22.80;99.90
20977;DHT22;10647;51.016;3.720;2022-08-20T08:21:16;22.80;99.90
20977;DHT22;10647;51.016;3.720;2022-08-20T08:23:44;22.90;99.90
20977;DHT22;10647;51.016;3.720;2022-08-20T08:26:13;22.90;99.90
20977;DHT22;10647;51.016;3.720;2022-08-20T08:28:41;23.00;99.90
20977;DHT22;10647;51.016;3.720;2022-08-20T08:31:12;23.10;99.90
20977;DHT22;10647;51.016;3.720;2022-08-20T08:33:41;23.20;99.90
20977;DHT22;10647;51.016;3.720;2022-08-20T08:36:11;23.30;99.90
20977;DHT22;10647;51.016;3.720;2022-08-20T08:38:41;23.30;99.90
20977;DHT22;10647;51.016;3.720;2022-08-20T08:41:18;23.40;99.90
20977;DHT22;10647;51.016;3.720;2022-08-20T08:43:48;23.40;99.90
20977;DHT22;10647;51.016;3.720;2022-08-20T08:46:22;23.60;99.90
20977;DHT22;10647;51.016;3.720;2022-08-20T08:48:51;23.80;99.90
20977;DHT22;10647;51.016;3.720;2022-08-20T08:51:25;24.00;99.90
20977;DHT22;10647;51.016;3.720;2022-08-20T08:53:52;24.40;99.90
20977;DHT22;10647;51.016;3.720;2022-08-20T08:56:23;24.90;99.90
20977;DHT22;10647;51.016;3.720;2022-08-20T08:58:56;25.20;99.90
20977;DHT22;10647;51.016;3.720;2022-08-20T09:01:22;25.30;99.90
20977;DHT22;10647;51.016;3.720;2022-08-20T09:03:51;25.30;99.90
20977;DHT22;10647;51.016;3.720;2022-08-20T09:06:21;25.50;99.90
20977;DHT22;10647;51.016;3.720;2022-08-20T09:08:51;25.50;99.90
20977;DHT22;10647;51.016;3.720;2022-08-20T09:11:21;25.30;99.90
20977;DHT22;10647;51.016;3.720;2022-08-20T09:13:51;25.10;99.90
20977;DHT22;10647;51.016;3.720;2022-08-20T09:16:23;25.10;99.90
20977;DHT22;10647;51.016;3.720;2022-08-20T09:18:51;25.20;99.90
20977;DHT22;10647;51.016;3.720;2022-08-20T09:21:19;25.50;99.90
20977;DHT22;10647;51.016;3.720;2022-08-20T09:23:46;26.00;99.90
20977;DHT22;10647;51.016;3.720;2022-08-20T09:26:14;26.10;99.90
20977;DHT22;10647;51.016;3.720;2022-08-20T09:28:41;26.00;99.90
20977;DHT22;10647;51.016;3.720;2022-08-20T09:31:09;26.10;99.90
20977;DHT22;10647;51.016;3.720;2022-08-20T09:33:36;26.20;99.90
20977;DHT22;10647;51.016;3.720;2022-08-20T09:36:04;26.30;99.90
20977;DHT22;10647;51.016;3.720;2022-08-20T09:38:32;26.40;99.90
20977;DHT22;10647;51.016;3.720;2022-08-20T09:40:59;26.30;99.90
20977;DHT22;10647;51.016;3.720;2022-08-20T09:43:28;26.30;99.90
20977;DHT22;10647;51.016;3.720;2022-08-20T09:45:55;26.40;99.90
20977;DHT22;10647;51.016;3.720;2022-08-20T09:48:23;26.70;99.90
20977;DHT22;10647;51.016;3.720;2022-08-20T09:50:51;26.70;99.90
20977;DHT22;10647;51.016;3.720;2022-08-20T09:53:20;26.30;99.90
20977;DHT22;10647;51.016;3.720;2022-08-20T09:55:52;25.90;99.90
20977;DHT22;10647;51.016;3.720;2022-08-20T09:58:35;25.50;99.90
20977;DHT22;10647;51.016;3.720;2022-08-20T10:01:09;25.30;99.90
20977;DHT22;10647;51.016;3.720;2022-08-20T10:03:36;25.20;99.90
20977;DHT22;10647;51.016;3.720;2022-08-20T10:06:04;25.10;99.90
20977;DHT22;10647;51.016;3.720;2022-08-20T10:08:32;25.10;99.90
20977;DHT22;10647;51.016;3.720;2022-08-20T10:10:59;25.20;99.90
20977;DHT22;10647;51.016;3.720;2022-08-20T10:13:27;25.50;99.90
20977;DHT22;10647;51.016;3.720;2022-08-20T10:15:54;25.60;99.90
20977;DHT22;10647;51.016;3.720;2022-08-20T10:18:22;25.50;99.90
20977;DHT22;10647;51.016;3.720;2022-08-20T10:20:50;25.50;99.90
20977;DHT22;10647;51.016;3.720;2022-08-20T10:23:17;25.60;99.90
20977;DHT22;10647;51.016;3.720;2022-08-20T10:25:45;25.70;99.90
20977;DHT22;10647;51.016;3.720;2022-08-20T10:28:13;25.70;99.90
20977;DHT22;10647;51.016;3.720;2022-08-20T10:30:41;25.60;99.90
20977;DHT22;10647;51.016;3.720;2022-08-20T10:33:11;25.60;99.90
20977;DHT22;10647;51.016;3.720;2022-08-20T10:35:38;25.70;99.90
20977;DHT22;10647;51.016;3.720;2022-08-20T10:38:06;25.90;99.90
20977;DHT22;10647;51.016;3.720;2022-08-20T10:40:34;26.30;99.90
20977;DHT22;10647;51.016;3.720;2022-08-20T10:43:02;26.60;99.90
20977;DHT22;10647;51.016;3.720;2022-08-20T10:45:29;27.00;99.90
20977;DHT22;10647;51.016;3.720;2022-08-20T10:48:00;27.10;99.90
20977;DHT22;10647;51.016;3.720;2022-08-20T10:50:28;27.30;99.90
20977;DHT22;10647;51.016;3.720;2022-08-20T10:52:55;27.50;99.90
20977;DHT22;10647;51.016;3.720;2022-08-20T10:55:23;27.60;99.90
20977;DHT22;10647;51.016;3.720;2022-08-20T10:57:50;27.80;99.90
20977;DHT22;10647;51.016;3.720;2022-08-20T11:00:18;28.30;99.90
20977;DHT22;10647;51.016;3.720;2022-08-20T11:02:46;28.70;99.90
20977;DHT22;10647;51.016;3.720;2022-08-20T11:05:15;28.70;99.90
20977;DHT22;10647;51.016;3.720;2022-08-20T11:07:43;28.70;99.90
20977;DHT22;10647;51.016;3.720;2022-08-20T11:10:12;28.60;99.90
20977;DHT22;10647;51.016;3.720;2022-08-20T11:12:39;28.60;99.90
20977;DHT22;10647;51.016;3.720;2022-08-20T11:15:08;28.50;99.90
20977;DHT22;10647;51.016;3.720;2022-08-20T11:17:39;28.80;99.90
20977;DHT22;10647;51.016;3.720;2022-08-20T11:20:09;28.70;99.90
20977;DHT22;10647;51.016;3.720;2022-08-20T11:22:37;28.60;99.90
20977;DHT22;10647;51.016;3.720;2022-08-20T11:25:05;28.70;99.90
20977;DHT22;10647;51.016;3.720;2022-08-20T11:27:40;29.00;99.90
20977;DHT22;10647;51.016;3.720;2022-08-20T11:30:06;29.10;99.90
20977;DHT22;10647;51.016;3.720;2022-08-20T11:32:34;29.00;99.90
20977;DHT22;10647;51.016;3.720;2022-08-20T11:35:02;28.60;99.90
20977;DHT22;10647;51.016;3.720;2022-08-20T11:37:30;28.30;99.90
20977;DHT22;10647;51.016;3.720;2022-08-20T11:39:58;28.50;99.90
20977;DHT22;10647;51.016;3.720;2022-08-20T11:42:25;28.40;99.90
20977;DHT22;10647;51.016;3.720;2022-08-20T11:44:53;28.40;99.90
20977;DHT22;10647;51.016;3.720;2022-08-20T11:47:28;28.50;99.90
20977;DHT22;10647;51.016;3.720;2022-08-20T11:50:00;28.90;99.90
20977;DHT22;10647;51.016;3.720;2022-08-20T11:52:28;29.10;99.90
20977;DHT22;10647;51.016;3.720;2022-08-20T11:54:57;29.40;99.90
20977;DHT22;10647;51.016;3.720;2022-08-20T11:57:30;29.70;99.90
20977;DHT22;10647;51.016;3.720;2022-08-20T11:59:59;29.90;99.90
20977;DHT22;10647;51.016;3.720;2022-08-20T12:02:27;29.80;99.90
20977;DHT22;10647;51.016;3.720;2022-08-20T12:04:55;29.70;99.90
20977;DHT22;10647;51.016;3.720;2022-08-20T12:07:24;29.70;99.90
20977;DHT22;10647;51.016;3.720;2022-08-20T12:09:52;29.70;99.90
20977;DHT22;10647;51.016;3.720;2022-08-20T12:12:21;29.80;99.90
20977;DHT22;10647;51.016;3.720;2022-08-20T12:14:52;29.90;99.90
20977;DHT22;10647;51.016;3.720;2022-08-20T12:17:22;29.80;99.90
20977;DHT22;10647;51.016;3.720;2022-08-20T12:19:52;29.80;99.90
20977;DHT22;10647;51.016;3.720;2022-08-20T12:22:21;29.70;99.90
20977;DHT22;10647;51.016;3.720;2022-08-20T12:24:49;30.10;99.90
20977;DHT22;10647;51.016;3.720;2022-08-20T12:27:20;30.40;99.90
20977;DHT22;10647;51.016;3.720;2022-08-20T12:29:49;30.60;99.90
20977;DHT22;10647;51.016;3.720;2022-08-20T12:32:20;30.50;99.90
20977;DHT22;10647;51.016;3.720;2022-08-20T12:34:48;30.60;99.90
20977;DHT22;10647;51.016;3.720;2022-08-20T12:37:18;30.70;99.90
20977;DHT22;10647;51.016;3.720;2022-08-20T12:39:48;30.80;99.90
20977;DHT22;10647;51.016;3.720;2022-08-20T12:42:16;30.60;99.90
20977;DHT22;10647;51.016;3.720;2022-08-20T12:44:44;30.50;99.90
20977;DHT22;10647;51.016;3.720;2022-08-20T12:47:17;30.60;99.90
20977;DHT22;10647;51.016;3.720;2022-08-20T12:49:50;30.70;99.90
20977;DHT22;10647;51.016;3.720;2022-08-20T12:52:18;30.70;99.90
20977;DHT22;10647;51.016;3.720;2022-08-20T12:54:46;30.50;99.90
20977;DHT22;10647;51.016;3.720;2022-08-20T12:57:22;30.70;99.90
20977;DHT22;10647;51.016;3.720;2022-08-20T13:00:15;31.10;99.90
20977;DHT22;10647;51.016;3.720;2022-08-20T13:02:42;31.30;99.90
20977;DHT22;10647;51.016;3.720;2022-08-20T13:05:11;31.40;99.90
20977;DHT22;10647;51.016;3.720;2022-08-20T13:07:40;32.80;99.90
20977;DHT22;10647;51.016;3.720;2022-08-20T13:10:10;33.50;99.90
20977;DHT22;10647;51.016;3.720;2022-08-20T13:12:38;37.10;99.90
20977;DHT22;10647;51.016;3.720;2022-08-20T13:15:06;37.10;99.90
20977;DHT22;10647;51.016;3.720;2022-08-20T13:17:34;39.20;99.90
20977;DHT22;10647;51.016;3.720;2022-08-20T13:20:03;39.60;99.90
20977;DHT22;10647;51.016;3.720;2022-08-20T13:22:30;39.60;98.90
20977;DHT22;10647;51.016;3.720;2022-08-20T13:24:58;40.40;96.00
20977;DHT22;10647;51.016;3.720;2022-08-20T13:27:25;40.60;99.90
20977;DHT22;10647;51.016;3.720;2022-08-20T13:29:54;43.00;97.40
20977;DHT22;10647;51.016;3.720;2022-08-20T13:32:22;40.90;97.00
20977;DHT22;10647;51.016;3.720;2022-08-20T13:34:50;38.90;99.10
20977;DHT22;10647;51.016;3.720;2022-08-20T13:37:21;37.90;99.90
20977;DHT22;10647;51.016;3.720;2022-08-20T13:39:49;38.70;99.90
20977;DHT22;10647;51.016;3.720;2022-08-20T13:42:16;41.80;98.10
20977;DHT22;10647;51.016;3.720;2022-08-20T13:44:44;43.10;96.80
20977;DHT22;10647;51.016;3.720;2022-08-20T13:47:16;41.10;95.20
20977;DHT22;10647;51.016;3.720;2022-08-20T13:49:45;39.90;95.70
20977;DHT22;10647;51.016;3.720;2022-08-20T13:52:13;38.70;99.90
20977;DHT22;10647;51.016;3.720;2022-08-20T13:54:41;37.50;99.40
20977;DHT22;10647;51.016;3.720;2022-08-20T13:57:14;39.40;97.10
20977;DHT22;10647;51.016;3.720;2022-08-20T13:59:47;38.90;97.30
20977;DHT22;10647;51.016;3.720;2022-08-20T14:02:22;37.20;97.60
20977;DHT22;10647;51.016;3.720;2022-08-20T14:04:50;36.20;98.10
20977;DHT22;10647;51.016;3.720;2022-08-20T14:07:27;36.10;99.90
20977;DHT22;10647;51.016;3.720;2022-08-20T14:09:57;36.00;99.90
20977;DHT22;10647;51.016;3.720;2022-08-20T14:12:26;36.00;99.90
20977;DHT22;10647;51.016;3.720;2022-08-20T14:14:55;35.10;99.90
20977;DHT22;10647;51.016;3.720;2022-08-20T14:17:28;34.40;99.90
20977;DHT22;10647;51.016;3.720;2022-08-20T14:19:58;33.60;99.90
20977;DHT22;10647;51.016;3.720;2022-08-20T14:22:26;32.90;99.90
20977;DHT22;10647;51.016;3.720;2022-08-20T14:24:53;32.30;99.90
20977;DHT22;10647;51.016;3.720;2022-08-20T14:27:24;34.30;99.90
20977;DHT22;10647;51.016;3.720;2022-08-20T14:29:51;38.10;99.90
20977;DHT22;10647;51.016;3.720;2022-08-20T14:32:19;36.20;99.90
20977;DHT22;10647;51.016;3.720;2022-08-20T14:34:47;35.00;99.90
20977;DHT22;10647;51.016;3.720;2022-08-20T14:37:23;35.60;99.90
20977;DHT22;10647;51.016;3.720;2022-08-20T14:39:52;34.60;99.90
20977;DHT22;10647;51.016;3.720;2022-08-20T14:42:20;34.00;99.90
20977;DHT22;10647;51.016;3.720;2022-08-20T14:44:49;33.30;99.90
20977;DHT22;10647;51.016;3.720;2022-08-20T14:47:22;33.10;99.90
20977;DHT22;10647;51.016;3.720;2022-08-20T14:49:52;32.70;99.90
20977;DHT22;10647;51.016;3.720;2022-08-20T14:52:22;34.30;99.90
20977;DHT22;10647;51.016;3.720;2022-08-20T14:54:50;38.40;99.90
20977;DHT22;10647;51.016;3.720;2022-08-20T14:57:19;41.50;99.90
20977;DHT22;10647;51.016;3.720;2022-08-20T14:59:47;43.50;96.20
20977;DHT22;10647;51.016;3.720;2022-08-20T15:02:16;44.60;90.50
20977;DHT22;10647;51.016;3.720;2022-08-20T15:04:44;44.50;86.40
20977;DHT22;10647;51.016;3.720;2022-08-20T15:07:26;41.60;93.70
20977;DHT22;10647;51.016;3.720;2022-08-20T15:09:55;39.30;94.70
20977;DHT22;10647;51.016;3.720;2022-08-20T15:12:23;37.30;98.60
20977;DHT22;10647;51.016;3.720;2022-08-20T15:14:51;36.10;99.90
20977;DHT22;10647;51.016;3.720;2022-08-20T15:17:20;35.30;99.90
20977;DHT22;10647;51.016;3.720;2022-08-20T15:19:48;34.70;99.90
20977;DHT22;10647;51.016;3.720;2022-08-20T15:22:16;34.00;99.90
20977;DHT22;10647;51.016;3.720;2022-08-20T15:24:44;33.30;99.90
20977;DHT22;10647;51.016;3.720;2022-08-20T15:27:18;32.90;99.90
20977;DHT22;10647;51.016;3.720;2022-08-20T15:29:46;32.70;99.90
20977;DHT22;10647;51.016;3.720;2022-08-20T15:32:14;32.50;99.90
20977;DHT22;10647;51.016;3.720;2022-08-20T15:34:41;32.30;99.90
20977;DHT22;10647;51.016;3.720;2022-08-20T15:37:12;32.00;99.90
20977;DHT22;10647;51.016;3.720;2022-08-20T15:39:40;32.00;99.90
20977;DHT22;10647;51.016;3.720;2022-08-20T15:42:15;31.80;99.90
20977;DHT22;10647;51.016;3.720;2022-08-20T15:44:43;31.70;99.90
20977;DHT22;10647;51.016;3.720;2022-08-20T15:49:45;31.70;99.90
20977;DHT22;10647;51.016;3.720;2022-08-20T15:52:13;31.50;99.90
20977;DHT22;10647;51.016;3.720;2022-08-20T15:54:41;31.40;99.90
20977;DHT22;10647;51.016;3.720;2022-08-20T15:57:30;31.30;99.90
20977;DHT22;10647;51.016;3.720;2022-08-20T16:00:07;31.40;99.90